Time;durP1;ratioP1;P1;durP2;ratioP2;P2;SDS_P1;SDS_P2;PMS_P1;PMS_P2;Temp;Humidity;BMP_temperature;BMP_pressure;BME280_temperature;BME280_humidity;BME280_pressure;Samples;Min_cycle;Max_cycle;Signal;HPM_P1;HPM_P2
2021/12/11 00:01:40;;;;;;;15.20;10.07;;;2.70;81.30;;;;;;5028143;28;20030;-68
2021/12/11 00:04:13;;;;;;;14.90;9.32;;;2.60;81.30;;;;;;5027642;28;20497;-69
2021/12/11 00:06:43;;;;;;;18.15;10.77;;;2.60;81.30;;;;;;5030618;28;20053;-68
2021/12/11 00:09:23;;;;;;;15.95;9.65;;;2.60;81.50;;;;;;5031060;28;20515;-69
2021/12/11 00:11:53;;;;;;;14.65;8.60;;;2.60;81.60;;;;;;5029502;28;20542;-69
2021/12/11 00:14:22;;;;;;;16.35;9.65;;;2.60;82.10;;;;;;5030686;28;20049;-69
2021/12/11 00:16:48;;;;;;;18.35;11.05;;;2.60;81.50;;;;;;5029543;28;20076;-69
2021/12/11 00:19:24;;;;;;;14.63;10.30;;;2.60;81.60;;;;;;5017862;28;20065;-69
2021/12/11 00:21:50;;;;;;;15.88;10.30;;;2.60;81.60;;;;;;5029515;28;20489;-69
2021/12/11 00:24:24;;;;;;;16.05;9.93;;;2.60;81.60;;;;;;5029120;28;20397;-69
2021/12/11 00:27:20;;;;;;;20.90;11.48;;;2.60;81.60;;;;;;5019936;28;20039;-69
2021/12/11 00:29:46;;;;;;;14.60;9.93;;;2.60;81.70;;;;;;5029495;28;20025;-68
2021/12/11 00:32:21;;;;;;;14.57;9.45;;;2.50;81.60;;;;;;5029190;28;20439;-69
2021/12/11 00:34:47;;;;;;;16.10;10.55;;;2.50;81.50;;;;;;5028438;28;20025;-69
2021/12/11 00:37:17;;;;;;;25.20;12.93;;;2.50;81.50;;;;;;5029623;28;20109;-69
2021/12/11 00:39:57;;;;;;;20.75;10.70;;;2.50;81.50;;;;;;5028777;28;20022;-69
2021/12/11 00:42:30;;;;;;;20.80;10.73;;;2.50;81.50;;;;;;5029584;28;20491;-69
2021/12/11 00:44:57;;;;;;;12.52;10.25;;;2.50;81.40;;;;;;5029087;28;20461;-69
2021/12/11 00:47:29;;;;;;;14.00;9.90;;;2.50;81.40;;;;;;5029843;28;20507;-68
2021/12/11 00:49:57;;;;;;;;;;;2.50;81.40;;;;;;5036697;28;20549;-69
2021/12/11 00:52:51;;;;;;;18.20;10.88;;;2.40;81.50;;;;;;5021846;28;19909;-69
2021/12/11 00:55:21;;;;;;;19.98;11.98;;;2.40;81.30;;;;;;5028320;28;20452;-69
2021/12/11 00:57:49;;;;;;;17.50;10.75;;;2.40;81.40;;;;;;5030104;28;20376;-69
2021/12/11 01:00:21;;;;;;;16.02;11.07;;;2.40;81.50;;;;;;5027969;28;20037;-69
2021/12/11 01:02:52;;;;;;;19.20;11.10;;;2.40;81.50;;;;;;5029189;28;20514;-69
2021/12/11 01:05:18;;;;;;;19.15;11.10;;;2.40;81.50;;;;;;5029480;28;20116;-69
2021/12/11 01:07:44;;;;;;;15.60;10.20;;;2.30;81.40;;;;;;5029301;28;20055;-69
2021/12/11 01:10:21;;;;;;;14.30;9.45;;;2.30;81.40;;;;;;5027029;28;20025;-69
2021/12/11 01:12:56;;;;;;;14.63;10.45;;;2.30;81.30;;;;;;5028972;28;20052;-69
2021/12/11 01:15:33;;;;;;;12.77;9.35;;;2.30;81.30;;;;;;5028627;28;20376;-69
2021/12/11 01:20:59;;;;;;;19.17;11.18;;;2.30;81.10;;;;;;5028946;28;20037;-70
2021/12/11 01:26:05;;;;;;;16.77;10.18;;;2.30;81.10;;;;;;5024898;28;20497;-69
2021/12/11 01:28:31;;;;;;;17.00;11.13;;;2.30;81.10;;;;;;5026006;28;20340;-69
2021/12/11 01:30:59;;;;;;;16.40;9.95;;;2.30;81.20;;;;;;5027449;28;20040;-69
2021/12/11 01:33:25;;;;;;;19.02;11.73;;;2.30;81.30;;;;;;5028637;28;20045;-69
2021/12/11 01:35:52;;;;;;;19.95;12.20;;;2.30;81.40;;;;;;5026253;28;20025;-69
2021/12/11 01:38:24;;;;;;;21.60;12.35;;;2.30;81.50;;;;;;5026036;28;20049;-69
2021/12/11 01:40:54;;;;;;;22.95;12.35;;;2.30;81.60;;;;;;5026452;28;20029;-69
2021/12/11 01:43:26;;;;;;;18.95;10.98;;;2.30;81.70;;;;;;5023912;28;20087;-69
2021/12/11 01:45:54;;;;;;;17.70;12.25;;;2.30;81.70;;;;;;5028262;28;20392;-68
2021/12/11 01:48:35;;;;;;;16.75;10.93;;;2.30;81.70;;;;;;5028670;28;20107;-69
2021/12/11 01:51:07;;;;;;;15.15;10.30;;;2.30;81.80;;;;;;5026135;28;20025;-68
2021/12/11 01:53:38;;;;;;;17.92;12.40;;;2.30;81.70;;;;;;5031709;28;20469;-69
2021/12/11 01:56:17;;;;;;;16.38;11.38;;;2.30;81.80;;;;;;5035145;28;20041;-69
2021/12/11 01:58:56;;;;;;;15.35;10.70;;;2.30;81.80;;;;;;5027258;28;20115;-69
2021/12/11 02:01:28;;;;;;;20.67;12.40;;;2.30;81.90;;;;;;5019372;28;20075;-69
2021/12/11 02:03:58;;;;;;;15.00;10.80;;;2.30;82.00;;;;;;5024821;28;20169;-69
2021/12/11 02:06:34;;;;;;;17.77;11.88;;;2.30;82.10;;;;;;5022528;28;20079;-69
2021/12/11 02:09:12;;;;;;;21.73;12.82;;;2.30;82.30;;;;;;5027147;28;20428;-69
2021/12/11 02:11:39;;;;;;;19.20;11.38;;;2.30;82.30;;;;;;5028315;28;20030;-68
2021/12/11 02:14:06;;;;;;;19.70;12.68;;;2.30;82.30;;;;;;5042118;28;20535;-69
2021/12/11 02:16:45;;;;;;;15.98;11.98;;;2.30;82.30;;;;;;5027258;28;20024;-69
2021/12/11 02:19:31;;;;;;;18.83;12.75;;;2.30;82.40;;;;;;5020208;28;20036;-69
2021/12/11 02:22:09;;;;;;;19.70;12.73;;;2.30;82.50;;;;;;5028485;28;20026;-69
2021/12/11 02:24:39;;;;;;;21.80;13.15;;;2.30;82.60;;;;;;5027673;28;20041;-69
2021/12/11 02:27:15;;;;;;;17.08;12.23;;;2.30;82.50;;;;;;5028820;28;20052;-69
2021/12/11 02:29:47;;;;;;;20.80;11.95;;;2.30;82.60;;;;;;5028037;28;20540;-69
2021/12/11 02:32:49;;;;;;;16.45;11.68;;;2.30;82.60;;;;;;5027778;28;20032;-69
2021/12/11 02:35:24;;;;;;;17.88;12.85;;;2.30;82.60;;;;;;5018302;28;20474;-69
2021/12/11 02:38:09;;;;;;;17.13;13.68;;;2.30;82.50;;;;;;5018695;28;20049;-70
2021/12/11 02:40:41;;;;;;;22.98;12.73;;;2.30;82.50;;;;;;5026714;28;20340;-69
2021/12/11 02:43:12;;;;;;;21.95;12.73;;;2.20;82.40;;;;;;5029078;28;20401;-69
2021/12/11 02:45:54;;;;;;;20.58;12.40;;;2.20;82.40;;;;;;5030026;28;20132;-69
2021/12/11 02:48:32;;;;;;;19.50;13.57;;;2.20;82.40;;;;;;5021531;28;20041;-68
2021/12/11 02:51:30;;;;;;;22.23;12.88;;;2.20;82.30;;;;;;5030297;28;20025;-69
2021/12/11 02:54:01;;;;;;;23.08;13.80;;;2.20;82.30;;;;;;5031122;28;20045;-68
2021/12/11 02:56:30;;;;;;;21.27;13.98;;;2.10;82.20;;;;;;5016320;28;20383;-69
2021/12/11 02:59:00;;;;;;;20.60;13.57;;;2.20;82.40;;;;;;5041723;28;20498;-69
2021/12/11 03:01:29;;;;;;;24.38;13.98;;;2.10;82.60;;;;;;5039154;28;20108;-69
2021/12/11 03:04:16;;;;;;;21.70;12.80;;;2.10;82.60;;;;;;5029750;28;20040;-69
2021/12/11 03:06:46;;;;;;;21.88;13.75;;;2.10;82.50;;;;;;5021356;28;20035;-68
2021/12/11 03:09:14;;;;;;;22.30;13.40;;;2.10;82.50;;;;;;5031599;28;20415;-68
2021/12/11 03:11:40;;;;;;;21.70;13.55;;;2.10;82.60;;;;;;5046595;28;20392;-69
2021/12/11 03:14:12;;;;;;;20.83;12.95;;;2.10;82.50;;;;;;5031544;28;20049;-69
2021/12/11 03:16:40;;;;;;;20.63;13.15;;;2.00;82.50;;;;;;5029743;28;20052;-69
2021/12/11 03:19:09;;;;;;;21.95;13.57;;;2.00;82.40;;;;;;5030458;28;20040;-69
2021/12/11 03:21:36;;;;;;;16.25;11.95;;;2.00;82.30;;;;;;5031388;28;20329;-69
2021/12/11 03:24:03;;;;;;;19.10;12.65;;;2.00;82.20;;;;;;5027904;28;20499;-69
2021/12/11 03:26:29;;;;;;;18.35;12.27;;;2.10;82.00;;;;;;5029254;28;20104;-68
2021/12/11 03:28:55;;;;;;;18.27;12.35;;;2.10;81.80;;;;;;5028801;28;20037;-68
2021/12/11 03:31:21;;;;;;;17.48;12.82;;;2.10;81.70;;;;;;5028675;28;20049;-68
2021/12/11 03:33:54;;;;;;;17.67;11.60;;;2.10;81.60;;;;;;5030178;28;20118;-69
2021/12/11 03:36:23;;;;;;;22.88;12.77;;;2.10;81.50;;;;;;5030208;28;20543;-68
2021/12/11 03:38:53;;;;;;;18.40;12.68;;;2.00;81.40;;;;;;5030971;28;20418;-69
2021/12/11 03:41:20;;;;;;;19.67;13.20;;;2.10;81.50;;;;;;5030384;28;20033;-69
2021/12/11 03:43:46;;;;;;;20.13;12.98;;;2.10;81.40;;;;;;5029730;28;20546;-68
2021/12/11 03:46:13;;;;;;;15.70;11.57;;;2.10;81.40;;;;;;5028674;28;20022;-68
2021/12/11 03:49:12;;;;;;;20.10;12.65;;;2.00;81.30;;;;;;5030678;28;20068;-68
2021/12/11 03:51:41;;;;;;;16.48;12.18;;;2.10;81.30;;;;;;5030000;28;20075;-68
2021/12/11 03:54:11;;;;;;;20.88;12.93;;;2.10;81.30;;;;;;5029570;28;20055;-69
2021/12/11 03:56:38;;;;;;;19.98;12.93;;;2.00;81.30;;;;;;5028879;28;20032;-69
2021/12/11 03:59:09;;;;;;;17.88;12.18;;;2.00;81.20;;;;;;5025675;28;20021;-69
2021/12/11 04:01:41;;;;;;;19.15;12.50;;;2.00;81.20;;;;;;5025435;28;20065;-69
2021/12/11 04:04:17;;;;;;;16.30;11.70;;;2.00;81.50;;;;;;5031894;28;20265;-69
2021/12/11 04:06:44;;;;;;;18.05;12.35;;;2.00;81.20;;;;;;5030092;28;20355;-69
2021/12/11 04:09:12;;;;;;;20.05;13.20;;;2.00;81.20;;;;;;5030516;28;20059;-69
2021/12/11 04:11:38;;;;;;;18.98;12.32;;;1.90;81.10;;;;;;5029996;28;20033;-69
2021/12/11 04:14:14;;;;;;;21.52;13.68;;;1.90;81.00;;;;;;5028455;28;20046;-69
2021/12/11 04:16:40;;;;;;;19.35;11.73;;;1.90;80.90;;;;;;5020378;28;20041;-69
2021/12/11 04:19:08;;;;;;;18.63;12.02;;;1.90;80.90;;;;;;5017429;28;20485;-70
2021/12/11 04:21:34;;;;;;;19.10;12.20;;;1.90;80.80;;;;;;5029941;28;20064;-69
2021/12/11 04:24:03;;;;;;;17.35;13.32;;;1.80;80.90;;;;;;5029435;28;20481;-69
2021/12/11 04:26:29;;;;;;;19.35;13.70;;;1.80;81.50;;;;;;5029697;28;20499;-69
2021/12/11 04:28:54;;;;;;;20.35;12.95;;;1.80;81.60;;;;;;5028111;28;20017;-69
2021/12/11 04:31:25;;;;;;;20.90;13.15;;;1.80;81.60;;;;;;5025427;28;20037;-69
2021/12/11 04:33:53;;;;;;;19.70;12.05;;;1.80;81.60;;;;;;5018491;28;20393;-69
2021/12/11 04:36:26;;;;;;;19.63;14.20;;;1.80;81.50;;;;;;5009069;28;20014;-69
2021/12/11 04:38:53;;;;;;;20.38;13.82;;;1.80;81.50;;;;;;5020343;28;20022;-70
2021/12/11 04:41:35;;;;;;;20.02;13.15;;;1.80;81.50;;;;;;5027792;28;20048;-69
2021/12/11 04:44:06;;;;;;;24.20;14.60;;;1.80;81.50;;;;;;5018986;28;20044;-69
2021/12/11 04:46:31;;;;;;;19.10;13.30;;;1.80;81.50;;;;;;5027657;28;20032;-69
2021/12/11 04:49:10;;;;;;;19.10;13.55;;;1.80;81.50;;;;;;5028427;28;20034;-69
2021/12/11 05:00:05;;;;;;;20.42;13.77;;;1.90;81.50;;;;;;5029420;28;20348;-68
2021/12/11 05:10:58;;;;;;;24.27;14.45;;;1.90;81.80;;;;;;5034465;28;20033;-69
2021/12/11 05:13:27;;;;;;;21.33;13.32;;;1.90;81.80;;;;;;5023111;28;20428;-69
2021/12/11 05:15:56;;;;;;;24.73;14.13;;;2.00;81.90;;;;;;5016445;28;20022;-70
2021/12/11 05:18:25;;;;;;;21.10;13.85;;;2.00;81.90;;;;;;5028863;28;20040;-70
2021/12/11 05:20:57;;;;;;;19.88;14.10;;;2.00;82.00;;;;;;5027183;28;20025;-69
2021/12/11 05:23:23;;;;;;;21.58;14.10;;;2.10;82.00;;;;;;5027803;28;20029;-70
2021/12/11 05:25:49;;;;;;;19.70;13.60;;;2.10;82.00;;;;;;5027958;28;20037;-70
2021/12/11 05:28:15;;;;;;;19.25;13.20;;;2.10;82.00;;;;;;5028700;28;20079;-69
2021/12/11 05:30:47;;;;;;;22.63;14.65;;;2.10;82.10;;;;;;5028232;28;20065;-69
2021/12/11 05:33:14;;;;;;;20.50;13.98;;;2.10;82.10;;;;;;5046740;28;20099;-69
2021/12/11 05:35:41;;;;;;;19.60;13.60;;;2.20;82.10;;;;;;5031880;28;20388;-69
2021/12/11 05:38:09;;;;;;;19.85;13.65;;;2.10;82.10;;;;;;5029413;28;20485;-69
2021/12/11 05:40:39;;;;;;;23.17;14.25;;;2.20;82.20;;;;;;5027438;28;20026;-69
2021/12/11 05:43:05;;;;;;;19.85;14.20;;;2.20;82.20;;;;;;5019460;28;20440;-69
2021/12/11 05:45:31;;;;;;;19.35;13.65;;;2.20;82.20;;;;;;5026673;28;20476;-70
2021/12/11 05:47:57;;;;;;;17.02;13.32;;;2.20;82.20;;;;;;5029034;28;20028;-69
2021/12/11 05:50:32;;;;;;;18.25;13.23;;;2.20;82.30;;;;;;5027986;28;20321;-69
2021/12/11 05:52:59;;;;;;;20.13;13.52;;;2.20;82.30;;;;;;5028841;28;20025;-69
2021/12/11 05:55:26;;;;;;;18.42;13.18;;;2.20;82.30;;;;;;5028578;28;20492;-68
2021/12/11 05:57:56;;;;;;;19.65;13.95;;;2.20;82.30;;;;;;5025466;28;20587;-69
2021/12/11 06:00:28;;;;;;;21.45;13.73;;;2.20;82.40;;;;;;5025146;28;20029;-68
2021/12/11 06:02:55;;;;;;;19.27;13.23;;;2.30;82.50;;;;;;5029151;28;20021;-69
2021/12/11 06:05:21;;;;;;;21.23;14.75;;;2.30;82.60;;;;;;5027341;28;20117;-68
2021/12/11 06:07:47;;;;;;;23.15;14.45;;;2.30;82.60;;;;;;5027456;28;20486;-69
2021/12/11 06:10:17;;;;;;;19.83;13.82;;;2.30;82.60;;;;;;5027802;28;20080;-69
2021/12/11 06:12:45;;;;;;;19.77;14.15;;;2.30;82.70;;;;;;5029563;28;20095;-69
2021/12/11 06:15:11;;;;;;;20.60;13.52;;;2.30;82.80;;;;;;5038146;28;20056;-68
2021/12/11 06:17:41;;;;;;;24.10;14.00;;;2.30;82.90;;;;;;5028215;28;20029;-68
2021/12/11 06:20:11;;;;;;;21.17;14.30;;;2.30;82.90;;;;;;5031404;28;20026;-68
2021/12/11 06:22:37;;;;;;;19.98;14.13;;;2.40;83.10;;;;;;5032339;28;20061;-68
2021/12/11 06:25:25;;;;;;;23.70;14.57;;;2.40;83.10;;;;;;5047807;28;20025;-68
2021/12/11 06:27:51;;;;;;;20.60;14.30;;;2.40;83.20;;;;;;5032532;28;20041;-69
2021/12/11 06:30:18;;;;;;;21.67;14.02;;;2.40;83.30;;;;;;5032156;28;20033;-69
2021/12/11 06:32:45;;;;;;;26.55;15.50;;;2.40;83.40;;;;;;5028637;28;20487;-69
2021/12/11 06:35:23;;;;;;;22.60;14.63;;;2.50;83.60;;;;;;5031398;28;20112;-68
2021/12/11 06:37:49;;;;;;;22.20;14.02;;;2.50;83.80;;;;;;5031862;28;20048;-68
2021/12/11 06:40:15;;;;;;;24.05;15.02;;;2.50;83.80;;;;;;5031433;28;20343;-69
2021/12/11 06:42:41;;;;;;;25.80;15.13;;;2.50;84.00;;;;;;5032650;28;20041;-69
2021/12/11 06:45:07;;;;;;;27.30;16.13;;;2.60;84.10;;;;;;5031743;28;20018;-69
2021/12/11 06:47:33;;;;;;;27.88;17.02;;;2.60;84.20;;;;;;5031802;28;20216;-69
2021/12/11 06:49:59;;;;;;;30.90;16.55;;;2.60;84.20;;;;;;5030631;28;20023;-69
2021/12/11 06:52:25;;;;;;;27.55;16.08;;;2.60;84.30;;;;;;5031764;28;20050;-69
2021/12/11 06:54:53;;;;;;;32.05;16.77;;;2.60;84.40;;;;;;5030608;28;20396;-69
2021/12/11 06:57:19;;;;;;;26.42;15.45;;;2.60;84.40;;;;;;5032038;28;20405;-69
2021/12/11 06:59:47;;;;;;;30.13;17.45;;;2.70;84.60;;;;;;5031047;28;20096;-69
2021/12/11 07:02:14;;;;;;;32.08;17.25;;;2.70;84.60;;;;;;5025472;28;20041;-70
2021/12/11 07:04:40;;;;;;;28.50;17.25;;;2.70;84.70;;;;;;5030782;28;20480;-69
2021/12/11 07:07:06;;;;;;;29.35;16.48;;;2.70;84.70;;;;;;5017311;28;20033;-69
2021/12/11 07:09:33;;;;;;;29.55;16.38;;;2.70;84.70;;;;;;5031047;28;20291;-69
2021/12/11 07:12:00;;;;;;;27.27;16.38;;;2.70;84.80;;;;;;5028044;28;20029;-69
2021/12/11 07:14:29;;;;;;;29.30;15.73;;;2.70;84.80;;;;;;5031161;28;20065;-69
2021/12/11 07:16:56;;;;;;;30.63;16.90;;;2.80;84.90;;;;;;5031261;28;20464;-69
2021/12/11 07:19:21;;;;;;;26.75;16.10;;;2.70;84.90;;;;;;5033179;28;20106;-69
2021/12/11 07:21:50;;;;;;;29.13;16.45;;;2.80;85.00;;;;;;5029854;28;20400;-69
2021/12/11 07:24:19;;;;;;;25.00;15.73;;;2.80;85.10;;;;;;5016516;28;20041;-69
2021/12/11 07:26:44;;;;;;;29.17;18.00;;;2.70;85.20;;;;;;5025735;28;20037;-69
2021/12/11 07:29:14;;;;;;;29.33;15.98;;;2.70;85.40;;;;;;5029779;28;20048;-69
2021/12/11 07:31:42;;;;;;;28.60;15.80;;;2.80;85.50;;;;;;5030763;28;20056;-68
2021/12/11 07:34:09;;;;;;;25.92;16.15;;;2.70;85.50;;;;;;5031229;28;20423;-68
2021/12/11 07:36:35;;;;;;;27.40;16.63;;;2.80;85.60;;;;;;5031358;28;20021;-68
2021/12/11 07:39:07;;;;;;;26.25;15.02;;;2.80;85.60;;;;;;5030357;28;20029;-68
2021/12/11 07:41:33;;;;;;;25.03;15.93;;;2.80;85.60;;;;;;5030529;28;20706;-69
2021/12/11 07:43:59;;;;;;;23.50;16.40;;;2.80;85.60;;;;;;5030765;28;20032;-68
2021/12/11 07:46:29;;;;;;;26.55;16.33;;;2.80;85.60;;;;;;5029608;28;20033;-68
2021/12/11 07:48:57;;;;;;;28.25;16.70;;;2.90;85.70;;;;;;5030075;28;20029;-69
2021/12/11 07:51:25;;;;;;;24.08;16.70;;;2.90;86.30;;;;;;5030393;28;20108;-69
2021/12/11 07:53:51;;;;;;;24.02;15.48;;;2.90;85.70;;;;;;5030851;28;20032;-69
2021/12/11 07:56:18;;;;;;;28.25;17.65;;;2.90;85.80;;;;;;5030922;28;20030;-68
2021/12/11 07:58:45;;;;;;;23.30;15.70;;;2.90;85.80;;;;;;5017861;28;20025;-68
2021/12/11 08:01:12;;;;;;;24.92;15.10;;;2.90;85.70;;;;;;5026543;28;20519;-66
2021/12/11 08:03:39;;;;;;;27.05;16.48;;;2.90;85.70;;;;;;5029772;28;20025;-64
2021/12/11 08:06:06;;;;;;;27.48;17.15;;;2.90;85.70;;;;;;5028133;28;20033;-66
2021/12/11 08:08:32;;;;;;;26.05;17.08;;;2.90;85.80;;;;;;5035030;28;20029;-70
2021/12/11 08:11:00;;;;;;;28.30;17.17;;;2.90;85.80;;;;;;5042115;28;20063;-68
2021/12/11 08:13:27;;;;;;;26.40;16.48;;;2.90;85.90;;;;;;5028766;28;20044;-67
2021/12/11 08:15:55;;;;;;;25.55;17.17;;;2.90;85.90;;;;;;5025782;28;20075;-68
2021/12/11 08:18:21;;;;;;;29.63;17.20;;;2.90;85.90;;;;;;5025135;28;20029;-65
2021/12/11 08:20:48;;;;;;;27.92;17.02;;;3.00;86.10;;;;;;5026672;28;20056;-65
2021/12/11 08:23:16;;;;;;;26.45;17.05;;;2.90;86.10;;;;;;5029395;28;20033;-69
2021/12/11 08:25:43;;;;;;;26.77;16.55;;;2.90;86.10;;;;;;5028598;28;20080;-68
2021/12/11 08:28:12;;;;;;;26.48;16.50;;;3.00;86.20;;;;;;5022304;28;20026;-69
2021/12/11 08:30:41;;;;;;;27.25;17.58;;;3.00;86.10;;;;;;5025940;28;20506;-66
2021/12/11 08:33:07;;;;;;;27.33;16.23;;;3.00;86.10;;;;;;5023369;28;20103;-68
2021/12/11 08:35:33;;;;;;;26.13;16.88;;;3.00;86.20;;;;;;5029073;28;20492;-68
2021/12/11 08:38:03;;;;;;;28.42;17.10;;;3.00;86.20;;;;;;5036304;28;20021;-64
2021/12/11 08:40:33;;;;;;;28.25;18.00;;;3.00;86.30;;;;;;5028671;28;20025;-76
2021/12/11 08:43:00;;;;;;;32.17;18.25;;;3.00;86.30;;;;;;5028709;28;20029;-66
2021/12/11 08:45:43;;;;;;;27.48;16.63;;;3.00;86.50;;;;;;5027613;28;20057;-66
2021/12/11 08:48:19;;;;;;;26.70;17.08;;;3.00;86.60;;;;;;5027693;28;20030;-70
2021/12/11 08:50:49;;;;;;;26.20;16.63;;;3.10;86.60;;;;;;5024325;28;20021;-69
2021/12/11 08:53:15;;;;;;;28.83;16.90;;;3.10;86.60;;;;;;5027826;28;20480;-66
2021/12/11 08:55:46;;;;;;;30.55;18.27;;;3.10;86.60;;;;;;5027435;28;20064;-72
2021/12/11 08:58:16;;;;;;;27.33;17.83;;;3.10;86.70;;;;;;5030099;28;20120;-68
2021/12/11 09:00:51;;;;;;;28.52;16.83;;;3.10;86.70;;;;;;5028483;28;20026;-67
2021/12/11 09:03:34;;;;;;;29.40;17.77;;;3.20;86.70;;;;;;5029442;28;20416;-68
2021/12/11 09:06:05;;;;;;;27.85;17.02;;;3.20;86.70;;;;;;5028631;28;20033;-68
2021/12/11 09:08:51;;;;;;;28.30;17.50;;;3.20;86.80;;;;;;5027483;28;20061;-66
2021/12/11 09:11:26;;;;;;;25.88;16.42;;;3.20;86.80;;;;;;5028496;28;20033;-75
2021/12/11 09:14:20;;;;;;;33.35;18.38;;;3.30;86.80;;;;;;5029046;28;20041;-66
2021/12/11 09:16:52;;;;;;;27.00;17.42;;;3.30;86.80;;;;;;5025277;28;20037;-67
2021/12/11 09:19:23;;;;;;;31.00;17.60;;;3.30;86.80;;;;;;5032979;28;20512;-66
2021/12/11 09:21:51;;;;;;;24.80;16.65;;;3.30;86.90;;;;;;5028584;28;20097;-66
2021/12/11 09:24:30;;;;;;;26.55;17.55;;;3.30;86.90;;;;;;5028427;28;20239;-65
2021/12/11 09:27:13;;;;;;;28.60;17.45;;;3.40;87.20;;;;;;5017117;28;20029;-70
2021/12/11 09:29:47;;;;;;;27.02;17.38;;;3.40;87.30;;;;;;5026618;28;20468;-73
2021/12/11 09:32:21;;;;;;;27.65;17.63;;;3.50;87.40;;;;;;5023080;28;20142;-72
2021/12/11 09:34:53;;;;;;;26.23;17.38;;;3.50;87.40;;;;;;5031309;28;20021;-73
2021/12/11 09:37:19;;;;;;;38.22;20.33;;;3.60;87.40;;;;;;5026382;28;20484;-71
2021/12/11 09:39:54;;;;;;;28.48;18.48;;;3.60;87.40;;;;;;5025057;28;20464;-71
2021/12/11 09:42:19;;;;;;;28.40;18.45;;;3.70;87.40;;;;;;5026741;28;20025;-71
2021/12/11 09:45:05;;;;;;;34.55;20.65;;;3.70;87.30;;;;;;5026939;28;20119;-70
2021/12/11 09:47:37;;;;;;;31.48;19.55;;;3.70;87.50;;;;;;5025761;28;20029;-71
2021/12/11 09:50:34;;;;;;;34.17;20.90;;;3.70;87.60;;;;;;5024186;28;20025;-72
2021/12/11 09:53:00;;;;;;;32.22;19.52;;;3.80;87.70;;;;;;5028995;28;20539;-72
2021/12/11 09:55:36;;;;;;;31.95;19.88;;;3.80;87.70;;;;;;5030669;28;20021;-73
2021/12/11 09:58:06;;;;;;;31.40;18.83;;;3.80;87.80;;;;;;5032326;28;20554;-70
2021/12/11 10:00:44;;;;;;;34.50;21.50;;;3.90;87.90;;;;;;5029679;28;20644;-70
2021/12/11 10:03:13;;;;;;;37.72;21.95;;;3.90;87.90;;;;;;5013013;28;20044;-70
2021/12/11 10:05:49;;;;;;;29.75;19.35;;;3.90;88.00;;;;;;5021951;28;20025;-70
2021/12/11 10:08:37;;;;;;;33.25;19.45;;;3.90;88.10;;;;;;5029098;28;20091;-71
2021/12/11 10:11:08;;;;;;;32.65;20.65;;;4.00;88.30;;;;;;5013683;28;20051;-70
2021/12/11 10:13:42;;;;;;;34.63;20.55;;;4.00;88.30;;;;;;5024893;28;20041;-70
2021/12/11 10:16:11;;;;;;;33.85;20.67;;;4.00;88.30;;;;;;5027111;28;20069;-70
2021/12/11 10:18:37;;;;;;;32.25;20.15;;;4.10;88.30;;;;;;5018894;28;20052;-70
2021/12/11 10:21:16;;;;;;;32.97;20.52;;;4.10;88.40;;;;;;5001084;28;20073;-70
2021/12/11 10:23:46;;;;;;;34.40;21.20;;;4.20;88.50;;;;;;5014383;28;20033;-70
2021/12/11 10:26:14;;;;;;;31.00;19.67;;;4.20;88.60;;;;;;5030213;28;20021;-69
2021/12/11 10:28:44;;;;;;;28.95;19.15;;;4.20;88.60;;;;;;5029028;28;20127;-70
2021/12/11 10:31:20;;;;;;;31.98;18.98;;;4.20;88.60;;;;;;5039246;28;20552;-70
2021/12/11 10:33:46;;;;;;;31.13;18.98;;;4.30;88.60;;;;;;5032252;28;20033;-71
2021/12/11 10:36:17;;;;;;;28.58;19.02;;;4.40;88.60;;;;;;5027203;28;20619;-70
2021/12/11 10:38:44;;;;;;;33.88;19.63;;;4.40;88.50;;;;;;5029271;28;20679;-70
2021/12/11 10:41:12;;;;;;;31.50;18.67;;;4.40;88.50;;;;;;5020679;28;20470;-70
2021/12/11 10:43:42;;;;;;;31.85;20.05;;;4.50;88.60;;;;;;5023703;28;20120;-71
2021/12/11 10:46:11;;;;;;;33.28;20.20;;;4.50;88.60;;;;;;5026931;28;20080;-71
2021/12/11 10:48:37;;;;;;;38.08;23.00;;;4.50;88.60;;;;;;5038119;28;20029;-70
2021/12/11 10:51:15;;;;;;;36.40;22.33;;;4.60;88.80;;;;;;5016855;28;20523;-70
2021/12/11 10:53:42;;;;;;;37.95;22.20;;;4.60;88.90;;;;;;5020516;28;20528;-71
2021/12/11 10:56:09;;;;;;;34.63;19.88;;;4.60;88.90;;;;;;5017005;28;20017;-71
2021/12/11 10:58:45;;;;;;;33.65;19.08;;;4.60;89.00;;;;;;5019979;28;20055;-70
2021/12/11 11:01:27;;;;;;;35.55;20.02;;;4.60;89.00;;;;;;5024670;28;20034;-71
2021/12/11 11:04:19;;;;;;;28.65;17.30;;;4.50;89.00;;;;;;5021866;28;20315;-71
2021/12/11 11:06:46;;;;;;;32.00;18.63;;;4.50;89.20;;;;;;5023840;28;20129;-71
2021/12/11 11:09:13;;;;;;;32.45;18.23;;;4.60;89.20;;;;;;5021339;28;20453;-71
2021/12/11 11:11:40;;;;;;;31.85;18.25;;;4.60;89.30;;;;;;5026963;28;20067;-71
2021/12/11 11:14:08;;;;;;;29.00;15.52;;;4.60;89.30;;;;;;5018490;28;20054;-71
2021/12/11 11:16:35;;;;;;;34.40;18.23;;;4.60;89.30;;;;;;5025634;28;20030;-71
2021/12/11 11:19:02;;;;;;;37.10;18.90;;;4.60;89.30;;;;;;5023815;28;20057;-70
2021/12/11 11:21:46;;;;;;;49.88;18.98;;;4.60;89.40;;;;;;5020019;28;20084;-71
2021/12/11 11:24:13;;;;;;;42.33;18.48;;;4.60;89.40;;;;;;5041631;28;20045;-71
2021/12/11 11:26:43;;;;;;;41.95;16.58;;;4.60;89.40;;;;;;5026677;28;20051;-71
2021/12/11 11:29:14;;;;;;;30.50;17.15;;;4.70;89.50;;;;;;5026018;28;20036;-71
2021/12/11 11:31:42;;;;;;;34.33;16.37;;;4.70;89.30;;;;;;5021539;28;20559;-71
2021/12/11 11:34:14;;;;;;;37.42;17.42;;;4.70;89.50;;;;;;5036864;28;20037;-71
2021/12/11 11:36:40;;;;;;;31.15;15.77;;;4.70;89.50;;;;;;5029623;28;20057;-71
2021/12/11 11:39:10;;;;;;;36.65;17.50;;;4.70;89.30;;;;;;5019955;28;20061;-71
2021/12/11 11:41:40;;;;;;;36.30;16.38;;;4.70;89.50;;;;;;5023182;28;20108;-71
2021/12/11 11:44:07;;;;;;;32.78;16.08;;;4.70;89.50;;;;;;5023781;28;20034;-71
2021/12/11 11:46:36;;;;;;;26.40;16.73;;;4.70;89.60;;;;;;5021921;28;20041;-70
2021/12/11 11:49:03;;;;;;;21.60;14.35;;;4.70;89.60;;;;;;5013645;28;20041;-70
2021/12/11 11:51:40;;;;;;;34.22;15.95;;;4.70;89.70;;;;;;5042403;28;20026;-71
2021/12/11 11:54:08;;;;;;;29.48;15.27;;;4.70;89.70;;;;;;5021163;28;20036;-70
2021/12/11 11:56:40;;;;;;;35.28;15.23;;;4.70;89.70;;;;;;5023536;28;20038;-71
2021/12/11 11:59:08;;;;;;;29.83;16.65;;;4.80;89.80;;;;;;5014462;28;20393;-67
2021/12/11 12:01:42;;;;;;;23.85;15.38;;;4.80;90.10;;;;;;5014896;28;20481;-69
2021/12/11 12:04:11;;;;;;;26.88;16.40;;;4.80;89.70;;;;;;5021566;28;20512;-68
2021/12/11 12:06:39;;;;;;;25.20;15.13;;;4.80;89.70;;;;;;5019372;28;20575;-66
2021/12/11 12:09:08;;;;;;;32.88;15.20;;;4.90;89.80;;;;;;5020995;28;20034;-65
2021/12/11 12:11:35;;;;;;;23.88;14.55;;;4.90;89.80;;;;;;5019748;28;20044;-65
2021/12/11 12:14:05;;;;;;;31.77;14.77;;;4.90;89.80;;;;;;5016795;28;20049;-67
2021/12/11 12:16:32;;;;;;;22.55;14.23;;;4.90;89.70;;;;;;5011245;28;20034;-67
2021/12/11 12:18:58;;;;;;;25.67;14.10;;;4.90;89.70;;;;;;5024253;28;20083;-67
2021/12/11 12:21:25;;;;;;;25.38;15.18;;;4.90;89.60;;;;;;5026798;28;20037;-70
2021/12/11 12:23:51;;;;;;;22.45;15.10;;;4.90;89.60;;;;;;5023177;28;20059;-67
2021/12/11 12:26:22;;;;;;;20.70;14.05;;;4.90;89.70;;;;;;5023079;28;20034;-66
2021/12/11 12:28:49;;;;;;;22.52;15.25;;;5.00;89.80;;;;;;5025351;28;20169;-68
2021/12/11 12:31:26;;;;;;;28.85;15.60;;;4.90;89.70;;;;;;5024909;28;20117;-68
2021/12/11 12:33:51;;;;;;;19.85;13.65;;;4.90;89.70;;;;;;5025005;28;20025;-69
2021/12/11 12:36:18;;;;;;;20.55;13.68;;;4.90;89.70;;;;;;5022932;28;20500;-67
2021/12/11 12:38:47;;;;;;;22.52;14.50;;;4.80;89.70;;;;;;5027559;28;20425;-65
2021/12/11 12:41:22;;;;;;;24.42;15.40;;;4.80;89.80;;;;;;5027325;28;20026;-66
2021/12/11 12:44:16;;;;;;;25.27;15.15;;;4.80;89.90;;;;;;5020856;28;20026;-65
2021/12/11 12:46:46;;;;;;;27.88;15.27;;;4.80;89.90;;;;;;5027247;28;20457;-67
2021/12/11 12:49:14;;;;;;;30.45;17.95;;;4.80;89.90;;;;;;5028141;28;20029;-68
2021/12/11 12:51:41;;;;;;;25.95;16.35;;;4.80;90.00;;;;;;5028288;28;20116;-67
2021/12/11 12:54:10;;;;;;;31.38;16.98;;;4.80;90.00;;;;;;5027326;28;20033;-68
2021/12/11 12:56:45;;;;;;;34.15;18.58;;;4.80;90.00;;;;;;5028853;28;20048;-67
2021/12/11 12:59:20;;;;;;;27.23;16.85;;;4.90;90.10;;;;;;5027685;28;20025;-67
2021/12/11 13:02:06;;;;;;;28.15;17.77;;;4.90;90.10;;;;;;5027753;28;20029;-68
2021/12/11 13:04:37;;;;;;;28.38;17.15;;;5.00;90.10;;;;;;5028511;28;20058;-66
2021/12/11 13:07:05;;;;;;;29.77;17.27;;;5.00;90.10;;;;;;5028131;28;20378;-66
2021/12/11 13:09:41;;;;;;;27.38;17.95;;;5.00;90.40;;;;;;5027759;28;20017;-68
2021/12/11 13:12:13;;;;;;;28.73;17.30;;;5.10;90.10;;;;;;5012274;28;20029;-63
2021/12/11 13:14:40;;;;;;;29.98;18.23;;;5.10;90.10;;;;;;5025476;28;20064;-62
2021/12/11 13:17:20;;;;;;;29.15;18.35;;;5.20;90.20;;;;;;5012118;28;20041;-65
2021/12/11 13:19:51;;;;;;;28.98;16.08;;;5.10;90.10;;;;;;5020196;28;20389;-66